sensor_id;sensor_type;location;lat;lon;timestamp;P1;durP1;ratioP1;P2;durP2;ratioP2
52940;SDS011;62001;53.366;6.636;2023-06-26T00:02:06;16.65;;;14.82;;
52940;SDS011;62001;53.366;6.636;2023-06-26T00:04:32;16.85;;;14.38;;
52940;SDS011;62001;53.366;6.636;2023-06-26T00:06:58;17.90;;;14.65;;
52940;SDS011;62001;53.366;6.636;2023-06-26T00:09:23;16.95;;;14.60;;
52940;SDS011;62001;53.366;6.636;2023-06-26T00:11:50;16.05;;;14.00;;
52940;SDS011;62001;53.366;6.636;2023-06-26T00:14:17;15.20;;;13.55;;
52940;SDS011;62001;53.366;6.636;2023-06-26T00:16:46;16.00;;;13.77;;
52940;SDS011;62001;53.366;6.636;2023-06-26T00:19:14;18.33;;;14.93;;
52940;SDS011;62001;53.366;6.636;2023-06-26T00:21:41;19.73;;;14.90;;
52940;SDS011;62001;53.366;6.636;2023-06-26T00:24:15;21.08;;;14.57;;
52940;SDS011;62001;53.366;6.636;2023-06-26T00:26:42;16.00;;;13.98;;
52940;SDS011;62001;53.366;6.636;2023-06-26T00:29:11;18.27;;;15.00;;
52940;SDS011;62001;53.366;6.636;2023-06-26T00:31:37;18.83;;;15.43;;
52940;SDS011;62001;53.366;6.636;2023-06-26T00:34:05;18.85;;;14.70;;
52940;SDS011;62001;53.366;6.636;2023-06-26T00:36:31;16.70;;;14.90;;
52940;SDS011;62001;53.366;6.636;2023-06-26T00:38:58;16.20;;;14.40;;
52940;SDS011;62001;53.366;6.636;2023-06-26T00:41:24;17.38;;;15.60;;
52940;SDS011;62001;53.366;6.636;2023-06-26T00:43:50;17.90;;;16.00;;
52940;SDS011;62001;53.366;6.636;2023-06-26T00:46:16;17.98;;;15.50;;
52940;SDS011;62001;53.366;6.636;2023-06-26T00:48:43;18.30;;;15.50;;
52940;SDS011;62001;53.366;6.636;2023-06-26T00:51:10;20.25;;;15.85;;
52940;SDS011;62001;53.366;6.636;2023-06-26T00:53:36;17.70;;;15.20;;
52940;SDS011;62001;53.366;6.636;2023-06-26T00:56:03;19.65;;;15.15;;
52940;SDS011;62001;53.366;6.636;2023-06-26T00:58:30;17.02;;;14.80;;
52940;SDS011;62001;53.366;6.636;2023-06-26T01:00:56;18.33;;;14.70;;
52940;SDS011;62001;53.366;6.636;2023-06-26T01:03:22;18.40;;;16.00;;
52940;SDS011;62001;53.366;6.636;2023-06-26T01:05:52;19.52;;;15.52;;
52940;SDS011;62001;53.366;6.636;2023-06-26T01:08:20;18.95;;;15.45;;
52940;SDS011;62001;53.366;6.636;2023-06-26T01:10:47;18.73;;;16.52;;
52940;SDS011;62001;53.366;6.636;2023-06-26T01:13:13;19.30;;;17.20;;
52940;SDS011;62001;53.366;6.636;2023-06-26T01:15:40;22.85;;;16.75;;
52940;SDS011;62001;53.366;6.636;2023-06-26T01:18:06;19.85;;;16.48;;
52940;SDS011;62001;53.366;6.636;2023-06-26T01:20:34;19.08;;;16.55;;
52940;SDS011;62001;53.366;6.636;2023-06-26T01:23:12;19.55;;;16.67;;
52940;SDS011;62001;53.366;6.636;2023-06-26T01:28:33;19.38;;;16.73;;
52940;SDS011;62001;53.366;6.636;2023-06-26T01:31:04;18.45;;;15.82;;
52940;SDS011;62001;53.366;6.636;2023-06-26T01:33:31;18.13;;;16.33;;
52940;SDS011;62001;53.366;6.636;2023-06-26T01:35:57;19.58;;;16.25;;
52940;SDS011;62001;53.366;6.636;2023-06-26T01:38:23;19.60;;;16.83;;
52940;SDS011;62001;53.366;6.636;2023-06-26T01:40:51;16.88;;;15.10;;
52940;SDS011;62001;53.366;6.636;2023-06-26T01:43:37;17.90;;;15.98;;
52940;SDS011;62001;53.366;6.636;2023-06-26T01:46:16;18.33;;;16.17;;
52940;SDS011;62001;53.366;6.636;2023-06-26T01:48:53;18.83;;;16.90;;
52940;SDS011;62001;53.366;6.636;2023-06-26T01:51:28;18.58;;;16.33;;
52940;SDS011;62001;53.366;6.636;2023-06-26T01:53:58;18.60;;;16.35;;
52940;SDS011;62001;53.366;6.636;2023-06-26T01:56:25;17.38;;;15.48;;
52940;SDS011;62001;53.366;6.636;2023-06-26T01:58:53;19.05;;;17.02;;
52940;SDS011;62001;53.366;6.636;2023-06-26T02:01:20;19.67;;;17.17;;
52940;SDS011;62001;53.366;6.636;2023-06-26T02:03:46;19.98;;;17.88;;
52940;SDS011;62001;53.366;6.636;2023-06-26T02:06:12;19.80;;;16.20;;
52940;SDS011;62001;53.366;6.636;2023-06-26T02:08:39;23.42;;;17.85;;
52940;SDS011;62001;53.366;6.636;2023-06-26T02:11:05;19.67;;;17.35;;
52940;SDS011;62001;53.366;6.636;2023-06-26T02:13:31;23.02;;;18.23;;
52940;SDS011;62001;53.366;6.636;2023-06-26T02:15:57;20.35;;;18.23;;
52940;SDS011;62001;53.366;6.636;2023-06-26T02:18:23;21.30;;;17.80;;
52940;SDS011;62001;53.366;6.636;2023-06-26T02:20:49;19.83;;;17.83;;
52940;SDS011;62001;53.366;6.636;2023-06-26T02:23:15;19.63;;;17.52;;
52940;SDS011;62001;53.366;6.636;2023-06-26T02:25:41;19.83;;;17.23;;
52940;SDS011;62001;53.366;6.636;2023-06-26T02:28:07;18.90;;;16.90;;
52940;SDS011;62001;53.366;6.636;2023-06-26T02:30:33;19.73;;;17.67;;
52940;SDS011;62001;53.366;6.636;2023-06-26T02:32:59;20.35;;;16.55;;
52940;SDS011;62001;53.366;6.636;2023-06-26T02:35:24;21.65;;;17.90;;
52940;SDS011;62001;53.366;6.636;2023-06-26T02:37:50;19.05;;;17.08;;
52940;SDS011;62001;53.366;6.636;2023-06-26T02:40:16;19.73;;;17.63;;
52940;SDS011;62001;53.366;6.636;2023-06-26T02:42:42;18.15;;;16.25;;
52940;SDS011;62001;53.366;6.636;2023-06-26T02:45:08;18.35;;;16.45;;
52940;SDS011;62001;53.366;6.636;2023-06-26T02:47:34;18.83;;;16.25;;
52940;SDS011;62001;53.366;6.636;2023-06-26T02:50:02;19.15;;;16.95;;
52940;SDS011;62001;53.366;6.636;2023-06-26T02:52:28;17.88;;;16.02;;
52940;SDS011;62001;53.366;6.636;2023-06-26T02:54:54;19.25;;;16.60;;
52940;SDS011;62001;53.366;6.636;2023-06-26T02:57:20;17.52;;;15.65;;
52940;SDS011;62001;53.366;6.636;2023-06-26T02:59:46;18.77;;;16.17;;
52940;SDS011;62001;53.366;6.636;2023-06-26T03:02:13;18.05;;;14.98;;
52940;SDS011;62001;53.366;6.636;2023-06-26T03:04:39;16.98;;;15.23;;
52940;SDS011;62001;53.366;6.636;2023-06-26T03:07:04;16.10;;;14.45;;
52940;SDS011;62001;53.366;6.636;2023-06-26T03:09:30;17.40;;;14.52;;
52940;SDS011;62001;53.366;6.636;2023-06-26T03:11:56;18.35;;;14.35;;
52940;SDS011;62001;53.366;6.636;2023-06-26T03:14:22;17.17;;;14.63;;
52940;SDS011;62001;53.366;6.636;2023-06-26T03:16:48;16.38;;;14.48;;
52940;SDS011;62001;53.366;6.636;2023-06-26T03:19:17;19.75;;;14.77;;
52940;SDS011;62001;53.366;6.636;2023-06-26T03:21:43;15.40;;;13.80;;
52940;SDS011;62001;53.366;6.636;2023-06-26T03:24:09;15.38;;;13.77;;
52940;SDS011;62001;53.366;6.636;2023-06-26T03:26:35;15.75;;;13.80;;
52940;SDS011;62001;53.366;6.636;2023-06-26T03:29:01;15.77;;;14.07;;
52940;SDS011;62001;53.366;6.636;2023-06-26T03:31:27;16.08;;;14.48;;
52940;SDS011;62001;53.366;6.636;2023-06-26T03:33:53;16.20;;;13.20;;
52940;SDS011;62001;53.366;6.636;2023-06-26T03:36:19;18.20;;;13.88;;
52940;SDS011;62001;53.366;6.636;2023-06-26T03:38:44;15.35;;;13.70;;
52940;SDS011;62001;53.366;6.636;2023-06-26T03:41:10;14.57;;;13.18;;
52940;SDS011;62001;53.366;6.636;2023-06-26T03:43:36;15.43;;;13.68;;
52940;SDS011;62001;53.366;6.636;2023-06-26T03:46:02;15.73;;;14.20;;
52940;SDS011;62001;53.366;6.636;2023-06-26T03:48:28;16.55;;;14.80;;
52940;SDS011;62001;53.366;6.636;2023-06-26T03:50:54;14.40;;;12.95;;
52940;SDS011;62001;53.366;6.636;2023-06-26T03:53:20;15.85;;;14.18;;
52940;SDS011;62001;53.366;6.636;2023-06-26T03:55:45;15.57;;;13.98;;
52940;SDS011;62001;53.366;6.636;2023-06-26T03:58:11;17.08;;;14.25;;
52940;SDS011;62001;53.366;6.636;2023-06-26T04:00:37;16.75;;;14.82;;
52940;SDS011;62001;53.366;6.636;2023-06-26T04:03:03;17.13;;;14.27;;
52940;SDS011;62001;53.366;6.636;2023-06-26T04:05:29;16.98;;;14.23;;
52940;SDS011;62001;53.366;6.636;2023-06-26T04:07:55;16.08;;;14.52;;
52940;SDS011;62001;53.366;6.636;2023-06-26T04:10:21;17.38;;;14.75;;
52940;SDS011;62001;53.366;6.636;2023-06-26T04:12:47;16.58;;;14.40;;
52940;SDS011;62001;53.366;6.636;2023-06-26T04:15:13;16.15;;;14.45;;
52940;SDS011;62001;53.366;6.636;2023-06-26T04:17:39;17.52;;;15.02;;
52940;SDS011;62001;53.366;6.636;2023-06-26T04:20:05;17.77;;;15.60;;
52940;SDS011;62001;53.366;6.636;2023-06-26T04:22:32;18.60;;;16.65;;
52940;SDS011;62001;53.366;6.636;2023-06-26T04:24:58;18.60;;;16.10;;
52940;SDS011;62001;53.366;6.636;2023-06-26T04:27:25;23.58;;;16.25;;
52940;SDS011;62001;53.366;6.636;2023-06-26T04:29:51;16.85;;;14.75;;
52940;SDS011;62001;53.366;6.636;2023-06-26T04:32:17;17.63;;;15.15;;
52940;SDS011;62001;53.366;6.636;2023-06-26T04:34:43;18.48;;;14.65;;
52940;SDS011;62001;53.366;6.636;2023-06-26T04:37:09;18.92;;;15.98;;
52940;SDS011;62001;53.366;6.636;2023-06-26T04:39:35;17.08;;;15.27;;
52940;SDS011;62001;53.366;6.636;2023-06-26T04:42:02;18.00;;;15.07;;
52940;SDS011;62001;53.366;6.636;2023-06-26T04:44:29;19.27;;;15.23;;
52940;SDS011;62001;53.366;6.636;2023-06-26T04:46:55;16.85;;;14.52;;
52940;SDS011;62001;53.366;6.636;2023-06-26T04:49:21;17.75;;;14.05;;
52940;SDS011;62001;53.366;6.636;2023-06-26T04:51:46;16.38;;;14.05;;
52940;SDS011;62001;53.366;6.636;2023-06-26T04:54:13;16.98;;;13.68;;
52940;SDS011;62001;53.366;6.636;2023-06-26T04:56:39;19.52;;;13.43;;
52940;SDS011;62001;53.366;6.636;2023-06-26T04:59:05;21.77;;;14.15;;
52940;SDS011;62001;53.366;6.636;2023-06-26T05:01:31;21.55;;;13.07;;
52940;SDS011;62001;53.366;6.636;2023-06-26T05:03:57;17.95;;;13.20;;
52940;SDS011;62001;53.366;6.636;2023-06-26T05:06:24;18.73;;;12.52;;
52940;SDS011;62001;53.366;6.636;2023-06-26T05:08:50;23.73;;;13.02;;
52940;SDS011;62001;53.366;6.636;2023-06-26T05:11:16;31.35;;;15.40;;
52940;SDS011;62001;53.366;6.636;2023-06-26T05:13:42;24.02;;;14.77;;
52940;SDS011;62001;53.366;6.636;2023-06-26T05:16:08;24.13;;;15.40;;
52940;SDS011;62001;53.366;6.636;2023-06-26T05:18:34;25.95;;;15.77;;
52940;SDS011;62001;53.366;6.636;2023-06-26T05:21:01;20.83;;;15.35;;
52940;SDS011;62001;53.366;6.636;2023-06-26T05:23:32;30.20;;;16.73;;
52940;SDS011;62001;53.366;6.636;2023-06-26T05:26:02;43.97;;;18.25;;
52940;SDS011;62001;53.366;6.636;2023-06-26T05:28:28;36.05;;;18.52;;
52940;SDS011;62001;53.366;6.636;2023-06-26T05:30:56;28.60;;;15.55;;
52940;SDS011;62001;53.366;6.636;2023-06-26T05:33:24;29.80;;;12.38;;
52940;SDS011;62001;53.366;6.636;2023-06-26T05:35:52;21.88;;;11.57;;
52940;SDS011;62001;53.366;6.636;2023-06-26T05:38:18;23.15;;;10.05;;
52940;SDS011;62001;53.366;6.636;2023-06-26T05:40:44;20.38;;;8.85;;
52940;SDS011;62001;53.366;6.636;2023-06-26T05:43:11;16.17;;;8.35;;
52940;SDS011;62001;53.366;6.636;2023-06-26T05:45:37;19.45;;;7.97;;
52940;SDS011;62001;53.366;6.636;2023-06-26T05:48:03;15.60;;;8.07;;
52940;SDS011;62001;53.366;6.636;2023-06-26T05:50:29;20.25;;;7.53;;
52940;SDS011;62001;53.366;6.636;2023-06-26T05:52:55;18.73;;;7.43;;
52940;SDS011;62001;53.366;6.636;2023-06-26T05:55:22;23.60;;;7.22;;
52940;SDS011;62001;53.366;6.636;2023-06-26T05:57:48;25.30;;;7.13;;
52940;SDS011;62001;53.366;6.636;2023-06-26T06:00:16;24.73;;;6.88;;
52940;SDS011;62001;53.366;6.636;2023-06-26T06:02:42;22.25;;;6.53;;
52940;SDS011;62001;53.366;6.636;2023-06-26T06:05:08;25.42;;;6.57;;
52940;SDS011;62001;53.366;6.636;2023-06-26T06:07:35;26.50;;;6.53;;
52940;SDS011;62001;53.366;6.636;2023-06-26T06:10:02;18.55;;;6.05;;
52940;SDS011;62001;53.366;6.636;2023-06-26T06:12:29;19.00;;;5.90;;
52940;SDS011;62001;53.366;6.636;2023-06-26T06:14:55;20.95;;;5.80;;
52940;SDS011;62001;53.366;6.636;2023-06-26T06:17:21;21.27;;;5.45;;
52940;SDS011;62001;53.366;6.636;2023-06-26T06:19:47;18.48;;;5.22;;
52940;SDS011;62001;53.366;6.636;2023-06-26T06:22:13;17.23;;;4.97;;
52940;SDS011;62001;53.366;6.636;2023-06-26T06:24:41;14.45;;;4.28;;
52940;SDS011;62001;53.366;6.636;2023-06-26T06:27:07;13.80;;;4.72;;
52940;SDS011;62001;53.366;6.636;2023-06-26T06:29:33;11.55;;;4.30;;
52940;SDS011;62001;53.366;6.636;2023-06-26T06:31:59;13.88;;;4.43;;
52940;SDS011;62001;53.366;6.636;2023-06-26T06:34:25;12.55;;;3.47;;
52940;SDS011;62001;53.366;6.636;2023-06-26T06:36:51;14.57;;;3.63;;
52940;SDS011;62001;53.366;6.636;2023-06-26T06:39:17;12.30;;;3.88;;
52940;SDS011;62001;53.366;6.636;2023-06-26T06:41:42;10.60;;;3.45;;
52940;SDS011;62001;53.366;6.636;2023-06-26T06:44:08;13.50;;;3.65;;
52940;SDS011;62001;53.366;6.636;2023-06-26T06:46:34;9.25;;;3.58;;
52940;SDS011;62001;53.366;6.636;2023-06-26T06:49:00;10.30;;;3.42;;
52940;SDS011;62001;53.366;6.636;2023-06-26T06:51:26;12.75;;;3.85;;
52940;SDS011;62001;53.366;6.636;2023-06-26T06:53:52;13.88;;;3.78;;
52940;SDS011;62001;53.366;6.636;2023-06-26T06:56:18;12.50;;;3.42;;
52940;SDS011;62001;53.366;6.636;2023-06-26T06:58:44;13.45;;;3.78;;
52940;SDS011;62001;53.366;6.636;2023-06-26T07:01:11;12.10;;;3.58;;
52940;SDS011;62001;53.366;6.636;2023-06-26T07:03:37;8.02;;;3.08;;
52940;SDS011;62001;53.366;6.636;2023-06-26T07:06:03;10.07;;;3.70;;
52940;SDS011;62001;53.366;6.636;2023-06-26T07:08:29;15.15;;;3.70;;
52940;SDS011;62001;53.366;6.636;2023-06-26T07:10:55;11.95;;;3.30;;
52940;SDS011;62001;53.366;6.636;2023-06-26T07:15:50;12.05;;;3.17;;
52940;SDS011;62001;53.366;6.636;2023-06-26T07:18:16;15.63;;;3.40;;
52940;SDS011;62001;53.366;6.636;2023-06-26T07:20:42;11.05;;;3.30;;
52940;SDS011;62001;53.366;6.636;2023-06-26T07:23:08;11.50;;;2.92;;
52940;SDS011;62001;53.366;6.636;2023-06-26T07:25:35;12.18;;;2.92;;
52940;SDS011;62001;53.366;6.636;2023-06-26T07:28:01;16.20;;;3.47;;
52940;SDS011;62001;53.366;6.636;2023-06-26T07:30:28;7.10;;;2.60;;
52940;SDS011;62001;53.366;6.636;2023-06-26T07:32:54;9.95;;;2.83;;
52940;SDS011;62001;53.366;6.636;2023-06-26T07:35:19;9.15;;;2.83;;
52940;SDS011;62001;53.366;6.636;2023-06-26T07:37:45;12.98;;;3.13;;
52940;SDS011;62001;53.366;6.636;2023-06-26T07:40:11;9.23;;;2.50;;
52940;SDS011;62001;53.366;6.636;2023-06-26T07:42:37;8.27;;;2.70;;
52940;SDS011;62001;53.366;6.636;2023-06-26T07:45:05;9.07;;;2.40;;
52940;SDS011;62001;53.366;6.636;2023-06-26T07:47:35;9.18;;;2.55;;
52940;SDS011;62001;53.366;6.636;2023-06-26T07:50:04;7.20;;;2.58;;
52940;SDS011;62001;53.366;6.636;2023-06-26T07:52:31;11.77;;;2.95;;
52940;SDS011;62001;53.366;6.636;2023-06-26T07:54:57;8.45;;;2.70;;
52940;SDS011;62001;53.366;6.636;2023-06-26T07:57:23;9.15;;;2.47;;
52940;SDS011;62001;53.366;6.636;2023-06-26T07:59:49;8.98;;;2.50;;
52940;SDS011;62001;53.366;6.636;2023-06-26T08:02:15;10.77;;;2.72;;
52940;SDS011;62001;53.366;6.636;2023-06-26T08:04:41;8.10;;;2.20;;
52940;SDS011;62001;53.366;6.636;2023-06-26T08:07:08;9.35;;;2.20;;
52940;SDS011;62001;53.366;6.636;2023-06-26T08:09:34;10.00;;;2.72;;
52940;SDS011;62001;53.366;6.636;2023-06-26T08:12:00;7.18;;;2.22;;
52940;SDS011;62001;53.366;6.636;2023-06-26T08:14:26;9.38;;;2.70;;
52940;SDS011;62001;53.366;6.636;2023-06-26T08:16:52;10.90;;;2.75;;
52940;SDS011;62001;53.366;6.636;2023-06-26T08:19:18;7.00;;;2.58;;
52940;SDS011;62001;53.366;6.636;2023-06-26T08:21:45;8.73;;;2.47;;
52940;SDS011;62001;53.366;6.636;2023-06-26T08:24:11;7.53;;;2.28;;
52940;SDS011;62001;53.366;6.636;2023-06-26T08:26:44;7.68;;;2.30;;
52940;SDS011;62001;53.366;6.636;2023-06-26T08:29:11;8.33;;;2.70;;
52940;SDS011;62001;53.366;6.636;2023-06-26T08:31:37;11.13;;;2.40;;
52940;SDS011;62001;53.366;6.636;2023-06-26T08:34:04;7.15;;;2.40;;
52940;SDS011;62001;53.366;6.636;2023-06-26T08:36:30;6.30;;;2.00;;
52940;SDS011;62001;53.366;6.636;2023-06-26T08:38:57;9.20;;;2.70;;
52940;SDS011;62001;53.366;6.636;2023-06-26T08:41:23;9.90;;;2.80;;
52940;SDS011;62001;53.366;6.636;2023-06-26T08:43:49;7.70;;;2.45;;
52940;SDS011;62001;53.366;6.636;2023-06-26T08:46:17;4.70;;;2.37;;
52940;SDS011;62001;53.366;6.636;2023-06-26T08:49:05;7.38;;;2.28;;
52940;SDS011;62001;53.366;6.636;2023-06-26T08:51:56;9.40;;;2.30;;
52940;SDS011;62001;53.366;6.636;2023-06-26T08:54:28;4.40;;;1.70;;
52940;SDS011;62001;53.366;6.636;2023-06-26T08:56:59;7.50;;;2.60;;
52940;SDS011;62001;53.366;6.636;2023-06-26T08:59:25;5.72;;;1.98;;
52940;SDS011;62001;53.366;6.636;2023-06-26T09:01:52;6.28;;;2.70;;
52940;SDS011;62001;53.366;6.636;2023-06-26T09:04:18;7.80;;;2.53;;
52940;SDS011;62001;53.366;6.636;2023-06-26T09:06:44;5.55;;;2.30;;
52940;SDS011;62001;53.366;6.636;2023-06-26T09:09:09;6.75;;;2.85;;
52940;SDS011;62001;53.366;6.636;2023-06-26T09:11:35;8.50;;;2.17;;
52940;SDS011;62001;53.366;6.636;2023-06-26T09:14:01;10.27;;;2.60;;
52940;SDS011;62001;53.366;6.636;2023-06-26T09:16:30;8.05;;;2.72;;
52940;SDS011;62001;53.366;6.636;2023-06-26T09:18:56;10.63;;;2.90;;
52940;SDS011;62001;53.366;6.636;2023-06-26T09:21:23;8.45;;;2.70;;
52940;SDS011;62001;53.366;6.636;2023-06-26T09:23:52;9.77;;;2.70;;
52940;SDS011;62001;53.366;6.636;2023-06-26T09:26:18;8.00;;;2.58;;
52940;SDS011;62001;53.366;6.636;2023-06-26T09:28:46;9.13;;;3.05;;
52940;SDS011;62001;53.366;6.636;2023-06-26T09:31:15;7.30;;;2.80;;
52940;SDS011;62001;53.366;6.636;2023-06-26T09:33:42;6.80;;;2.72;;
52940;SDS011;62001;53.366;6.636;2023-06-26T09:36:19;6.68;;;2.53;;
52940;SDS011;62001;53.366;6.636;2023-06-26T09:38:50;8.63;;;3.20;;
52940;SDS011;62001;53.366;6.636;2023-06-26T09:41:16;10.57;;;2.75;;
52940;SDS011;62001;53.366;6.636;2023-06-26T09:43:49;7.80;;;2.72;;
52940;SDS011;62001;53.366;6.636;2023-06-26T09:46:16;10.25;;;3.20;;
52940;SDS011;62001;53.366;6.636;2023-06-26T09:48:49;8.15;;;2.97;;
52940;SDS011;62001;53.366;6.636;2023-06-26T09:51:16;7.80;;;2.70;;
52940;SDS011;62001;53.366;6.636;2023-06-26T09:53:47;9.65;;;2.85;;
52940;SDS011;62001;53.366;6.636;2023-06-26T09:56:16;9.32;;;2.80;;
52940;SDS011;62001;53.366;6.636;2023-06-26T09:58:43;8.65;;;2.88;;
52940;SDS011;62001;53.366;6.636;2023-06-26T10:01:09;8.40;;;3.05;;
52940;SDS011;62001;53.366;6.636;2023-06-26T10:03:35;7.40;;;2.95;;
52940;SDS011;62001;53.366;6.636;2023-06-26T10:06:02;8.27;;;2.83;;
52940;SDS011;62001;53.366;6.636;2023-06-26T10:08:28;8.73;;;2.95;;
52940;SDS011;62001;53.366;6.636;2023-06-26T10:10:55;8.18;;;3.08;;
52940;SDS011;62001;53.366;6.636;2023-06-26T10:13:24;9.43;;;3.20;;
52940;SDS011;62001;53.366;6.636;2023-06-26T10:15:56;8.30;;;2.97;;
52940;SDS011;62001;53.366;6.636;2023-06-26T10:18:24;11.20;;;3.38;;
52940;SDS011;62001;53.366;6.636;2023-06-26T10:20:53;8.43;;;2.95;;
52940;SDS011;62001;53.366;6.636;2023-06-26T10:25:51;7.30;;;2.58;;
52940;SDS011;62001;53.366;6.636;2023-06-26T10:28:19;9.20;;;2.80;;
52940;SDS011;62001;53.366;6.636;2023-06-26T10:30:46;8.35;;;2.55;;
52940;SDS011;62001;53.366;6.636;2023-06-26T10:33:15;5.70;;;2.47;;
52940;SDS011;62001;53.366;6.636;2023-06-26T10:35:42;6.68;;;2.97;;
52940;SDS011;62001;53.366;6.636;2023-06-26T10:38:09;6.93;;;2.70;;
52940;SDS011;62001;53.366;6.636;2023-06-26T10:40:45;6.88;;;2.60;;
52940;SDS011;62001;53.366;6.636;2023-06-26T10:43:13;6.65;;;2.75;;
52940;SDS011;62001;53.366;6.636;2023-06-26T10:45:47;7.28;;;3.00;;
52940;SDS011;62001;53.366;6.636;2023-06-26T10:48:19;5.28;;;2.83;;
52940;SDS011;62001;53.366;6.636;2023-06-26T10:50:49;8.43;;;3.13;;
52940;SDS011;62001;53.366;6.636;2023-06-26T10:53:15;7.22;;;3.30;;
52940;SDS011;62001;53.366;6.636;2023-06-26T10:55:59;6.55;;;3.17;;
52940;SDS011;62001;53.366;6.636;2023-06-26T10:58:29;9.48;;;3.45;;
52940;SDS011;62001;53.366;6.636;2023-06-26T11:03:37;6.20;;;2.83;;
52940;SDS011;62001;53.366;6.636;2023-06-26T11:06:13;7.32;;;2.88;;
52940;SDS011;62001;53.366;6.636;2023-06-26T11:08:46;7.47;;;2.58;;
52940;SDS011;62001;53.366;6.636;2023-06-26T11:11:12;9.07;;;2.80;;
52940;SDS011;62001;53.366;6.636;2023-06-26T11:13:39;7.22;;;2.67;;
52940;SDS011;62001;53.366;6.636;2023-06-26T11:16:05;8.25;;;2.72;;
52940;SDS011;62001;53.366;6.636;2023-06-26T11:18:32;6.50;;;2.50;;
52940;SDS011;62001;53.366;6.636;2023-06-26T11:21:05;8.85;;;2.78;;
52940;SDS011;62001;53.366;6.636;2023-06-26T11:23:31;6.88;;;2.38;;
52940;SDS011;62001;53.366;6.636;2023-06-26T11:26:15;10.10;;;2.50;;
52940;SDS011;62001;53.366;6.636;2023-06-26T11:28:52;10.18;;;2.72;;
52940;SDS011;62001;53.366;6.636;2023-06-26T11:31:28;8.13;;;2.58;;
52940;SDS011;62001;53.366;6.636;2023-06-26T11:33:55;13.13;;;2.72;;
52940;SDS011;62001;53.366;6.636;2023-06-26T11:36:28;9.65;;;2.38;;
52940;SDS011;62001;53.366;6.636;2023-06-26T11:39:01;5.10;;;2.20;;
52940;SDS011;62001;53.366;6.636;2023-06-26T11:41:29;9.93;;;2.35;;
52940;SDS011;62001;53.366;6.636;2023-06-26T11:44:02;7.82;;;2.28;;
52940;SDS011;62001;53.366;6.636;2023-06-26T11:46:30;11.95;;;2.58;;
52940;SDS011;62001;53.366;6.636;2023-06-26T11:48:56;14.10;;;2.95;;
52940;SDS011;62001;53.366;6.636;2023-06-26T11:51:22;10.68;;;2.28;;
52940;SDS011;62001;53.366;6.636;2023-06-26T11:53:48;8.60;;;2.20;;
52940;SDS011;62001;53.366;6.636;2023-06-26T11:56:15;11.20;;;2.33;;
52940;SDS011;62001;53.366;6.636;2023-06-26T11:59:01;8.05;;;2.40;;
52940;SDS011;62001;53.366;6.636;2023-06-26T12:04:00;7.13;;;2.60;;
52940;SDS011;62001;53.366;6.636;2023-06-26T12:06:32;9.27;;;2.50;;
52940;SDS011;62001;53.366;6.636;2023-06-26T12:09:00;12.55;;;2.50;;
52940;SDS011;62001;53.366;6.636;2023-06-26T12:11:31;12.20;;;2.55;;
52940;SDS011;62001;53.366;6.636;2023-06-26T12:13:59;6.80;;;2.42;;
52940;SDS011;62001;53.366;6.636;2023-06-26T12:16:26;8.63;;;2.90;;
52940;SDS011;62001;53.366;6.636;2023-06-26T12:19:00;8.38;;;2.72;;
52940;SDS011;62001;53.366;6.636;2023-06-26T12:21:43;6.53;;;2.72;;
52940;SDS011;62001;53.366;6.636;2023-06-26T12:24:17;10.43;;;2.70;;
52940;SDS011;62001;53.366;6.636;2023-06-26T12:26:45;11.35;;;2.58;;
52940;SDS011;62001;53.366;6.636;2023-06-26T12:29:13;6.75;;;2.53;;
52940;SDS011;62001;53.366;6.636;2023-06-26T12:31:46;7.28;;;2.65;;
52940;SDS011;62001;53.366;6.636;2023-06-26T12:34:18;9.50;;;2.70;;
52940;SDS011;62001;53.366;6.636;2023-06-26T12:36:47;5.75;;;2.00;;
52940;SDS011;62001;53.366;6.636;2023-06-26T12:39:17;7.60;;;2.03;;
52940;SDS011;62001;53.366;6.636;2023-06-26T12:41:45;9.38;;;2.50;;
52940;SDS011;62001;53.366;6.636;2023-06-26T12:44:21;6.93;;;2.47;;
52940;SDS011;62001;53.366;6.636;2023-06-26T12:46:53;8.85;;;2.42;;
52940;SDS011;62001;53.366;6.636;2023-06-26T12:49:35;7.57;;;2.50;;
52940;SDS011;62001;53.366;6.636;2023-06-26T12:52:05;7.68;;;2.20;;
52940;SDS011;62001;53.366;6.636;2023-06-26T12:54:33;7.60;;;1.95;;
52940;SDS011;62001;53.366;6.636;2023-06-26T12:57:00;7.03;;;2.47;;
52940;SDS011;62001;53.366;6.636;2023-06-26T12:59:26;5.07;;;1.98;;
52940;SDS011;62001;53.366;6.636;2023-06-26T13:01:52;7.95;;;2.10;;
52940;SDS011;62001;53.366;6.636;2023-06-26T13:04:18;7.22;;;1.88;;
52940;SDS011;62001;53.366;6.636;2023-06-26T13:06:44;7.30;;;2.10;;
52940;SDS011;62001;53.366;6.636;2023-06-26T13:09:10;10.57;;;2.40;;
52940;SDS011;62001;53.366;6.636;2023-06-26T13:11:37;7.93;;;2.40;;
52940;SDS011;62001;53.366;6.636;2023-06-26T13:14:03;6.22;;;2.00;;
52940;SDS011;62001;53.366;6.636;2023-06-26T13:16:29;8.85;;;2.20;;
52940;SDS011;62001;53.366;6.636;2023-06-26T13:18:55;6.60;;;2.30;;
52940;SDS011;62001;53.366;6.636;2023-06-26T13:21:23;8.02;;;2.20;;
52940;SDS011;62001;53.366;6.636;2023-06-26T13:23:49;8.98;;;2.25;;
52940;SDS011;62001;53.366;6.636;2023-06-26T13:26:15;9.75;;;2.40;;
52940;SDS011;62001;53.366;6.636;2023-06-26T13:28:41;8.13;;;2.10;;
52940;SDS011;62001;53.366;6.636;2023-06-26T13:31:07;8.93;;;2.58;;
52940;SDS011;62001;53.366;6.636;2023-06-26T13:33:33;9.40;;;2.08;;
52940;SDS011;62001;53.366;6.636;2023-06-26T13:35:58;10.35;;;2.67;;
52940;SDS011;62001;53.366;6.636;2023-06-26T13:38:24;12.38;;;2.22;;
52940;SDS011;62001;53.366;6.636;2023-06-26T13:40:53;6.80;;;1.90;;
52940;SDS011;62001;53.366;6.636;2023-06-26T13:43:20;6.95;;;2.28;;
52940;SDS011;62001;53.366;6.636;2023-06-26T13:45:47;8.00;;;2.20;;
52940;SDS011;62001;53.366;6.636;2023-06-26T13:48:14;7.40;;;2.20;;
52940;SDS011;62001;53.366;6.636;2023-06-26T13:50:40;9.40;;;2.53;;
52940;SDS011;62001;53.366;6.636;2023-06-26T13:53:06;12.07;;;2.55;;
52940;SDS011;62001;53.366;6.636;2023-06-26T13:55:33;9.98;;;2.60;;
52940;SDS011;62001;53.366;6.636;2023-06-26T13:57:59;6.63;;;2.17;;
52940;SDS011;62001;53.366;6.636;2023-06-26T14:00:29;8.88;;;2.45;;
52940;SDS011;62001;53.366;6.636;2023-06-26T14:02:55;8.45;;;2.28;;
52940;SDS011;62001;53.366;6.636;2023-06-26T14:05:21;8.52;;;2.50;;
52940;SDS011;62001;53.366;6.636;2023-06-26T14:07:48;9.93;;;2.38;;
52940;SDS011;62001;53.366;6.636;2023-06-26T14:10:14;10.13;;;2.30;;
52940;SDS011;62001;53.366;6.636;2023-06-26T14:12:40;5.85;;;1.90;;
52940;SDS011;62001;53.366;6.636;2023-06-26T14:15:06;8.32;;;2.30;;
52940;SDS011;62001;53.366;6.636;2023-06-26T14:17:32;13.63;;;2.67;;
52940;SDS011;62001;53.366;6.636;2023-06-26T14:19:58;10.95;;;2.83;;
52940;SDS011;62001;53.366;6.636;2023-06-26T14:22:24;10.70;;;3.05;;
52940;SDS011;62001;53.366;6.636;2023-06-26T14:24:51;8.38;;;2.50;;
52940;SDS011;62001;53.366;6.636;2023-06-26T14:27:17;9.77;;;2.95;;
52940;SDS011;62001;53.366;6.636;2023-06-26T14:29:43;9.35;;;2.45;;
52940;SDS011;62001;53.366;6.636;2023-06-26T14:32:08;8.20;;;2.35;;
52940;SDS011;62001;53.366;6.636;2023-06-26T14:34:34;8.10;;;2.90;;
52940;SDS011;62001;53.366;6.636;2023-06-26T14:37:00;11.43;;;2.90;;
52940;SDS011;62001;53.366;6.636;2023-06-26T14:39:26;8.30;;;2.50;;
52940;SDS011;62001;53.366;6.636;2023-06-26T14:41:52;12.90;;;2.75;;
52940;SDS011;62001;53.366;6.636;2023-06-26T14:44:18;7.75;;;2.38;;
52940;SDS011;62001;53.366;6.636;2023-06-26T14:46:43;9.88;;;2.38;;
52940;SDS011;62001;53.366;6.636;2023-06-26T14:49:09;11.95;;;2.80;;
52940;SDS011;62001;53.366;6.636;2023-06-26T14:51:35;10.63;;;2.70;;